sensor_id;sensor_type;location;lat;lon;timestamp;pressure;altitude;pressure_sealevel;temperature;humidity
67738;BME280;54534;43.612;1.572;2022-11-21T00:00:14;99369.06;;;19.34;50.66
67738;BME280;54534;43.612;1.572;2022-11-21T00:02:40;99365.53;;;19.34;50.88
67738;BME280;54534;43.612;1.572;2022-11-21T00:05:06;99356.69;;;19.33;50.78
67738;BME280;54534;43.612;1.572;2022-11-21T00:07:31;99348.69;;;19.33;50.86
67738;BME280;54534;43.612;1.572;2022-11-21T00:09:57;99345.16;;;19.33;50.73
67738;BME280;54534;43.612;1.572;2022-11-21T00:12:22;99350.63;;;19.31;50.55
67738;BME280;54534;43.612;1.572;2022-11-21T00:14:47;99336.47;;;19.31;50.45
67738;BME280;54534;43.612;1.572;2022-11-21T00:17:13;99327.59;;;19.30;50.31
67738;BME280;54534;43.612;1.572;2022-11-21T00:19:38;99317.09;;;19.29;50.39
67738;BME280;54534;43.612;1.572;2022-11-21T00:22:04;99311.75;;;19.29;50.48
67738;BME280;54534;43.612;1.572;2022-11-21T00:24:29;99303.75;;;19.29;50.11
67738;BME280;54534;43.612;1.572;2022-11-21T00:26:54;99293.19;;;19.27;50.41
67738;BME280;54534;43.612;1.572;2022-11-21T00:29:20;99288.72;;;19.28;50.19
67738;BME280;54534;43.612;1.572;2022-11-21T00:31:45;99284.38;;;19.27;50.39
67738;BME280;54534;43.612;1.572;2022-11-21T00:34:11;99263.31;;;19.23;50.14
67738;BME280;54534;43.612;1.572;2022-11-21T00:36:36;99266.81;;;19.24;50.28
67738;BME280;54534;43.612;1.572;2022-11-21T00:39:01;99265.97;;;19.23;50.17
67738;BME280;54534;43.612;1.572;2022-11-21T00:41:27;99255.41;;;19.22;50.31
67738;BME280;54534;43.612;1.572;2022-11-21T00:43:52;99256.41;;;19.21;50.23
67738;BME280;54534;43.612;1.572;2022-11-21T00:46:18;99246.69;;;19.20;50.22
67738;BME280;54534;43.612;1.572;2022-11-21T00:48:43;99251.19;;;19.19;49.98
67738;BME280;54534;43.612;1.572;2022-11-21T00:51:08;99240.50;;;19.19;50.08
67738;BME280;54534;43.612;1.572;2022-11-21T00:53:34;99230.84;;;19.18;50.17
67738;BME280;54534;43.612;1.572;2022-11-21T00:55:59;99224.63;;;19.18;49.77
67738;BME280;54534;43.612;1.572;2022-11-21T00:58:25;99215.78;;;19.17;49.96
67738;BME280;54534;43.612;1.572;2022-11-21T01:00:51;99216.78;;;19.16;50.07
67738;BME280;54534;43.612;1.572;2022-11-21T01:03:17;99219.44;;;19.16;50.07
67738;BME280;54534;43.612;1.572;2022-11-21T01:05:42;99212.41;;;19.15;49.91
67738;BME280;54534;43.612;1.572;2022-11-21T01:08:07;99210.69;;;19.14;50.04
67738;BME280;54534;43.612;1.572;2022-11-21T01:10:34;99206.38;;;19.13;49.94
67738;BME280;54534;43.612;1.572;2022-11-21T01:12:59;99194.00;;;19.12;49.79
67738;BME280;54534;43.612;1.572;2022-11-21T01:15:25;99191.34;;;19.12;49.77
67738;BME280;54534;43.612;1.572;2022-11-21T01:17:50;99185.16;;;19.11;49.88
67738;BME280;54534;43.612;1.572;2022-11-21T01:20:16;99166.63;;;19.10;49.66
67738;BME280;54534;43.612;1.572;2022-11-21T01:22:41;99169.31;;;19.10;49.81
67738;BME280;54534;43.612;1.572;2022-11-21T01:25:07;99161.41;;;19.08;50.13
67738;BME280;54534;43.612;1.572;2022-11-21T01:27:32;99148.09;;;19.08;49.96
67738;BME280;54534;43.612;1.572;2022-11-21T01:29:58;99142.91;;;19.07;50.00
67738;BME280;54534;43.612;1.572;2022-11-21T01:32:23;99130.53;;;19.06;49.62
67738;BME280;54534;43.612;1.572;2022-11-21T01:34:48;99122.56;;;19.06;49.92
67738;BME280;54534;43.612;1.572;2022-11-21T01:37:14;99117.22;;;19.06;49.67
67738;BME280;54534;43.612;1.572;2022-11-21T01:39:39;99113.72;;;19.05;49.85
67738;BME280;54534;43.612;1.572;2022-11-21T01:42:05;99103.19;;;19.04;49.94
67738;BME280;54534;43.612;1.572;2022-11-21T01:44:51;99097.84;;;19.04;49.99
67738;BME280;54534;43.612;1.572;2022-11-21T01:47:17;99090.00;;;19.02;49.71
67738;BME280;54534;43.612;1.572;2022-11-21T01:49:44;99091.81;;;19.01;49.63
67738;BME280;54534;43.612;1.572;2022-11-21T01:52:22;99071.47;;;19.00;49.60
67738;BME280;54534;43.612;1.572;2022-11-21T01:54:57;99064.47;;;18.99;49.68
67738;BME280;54534;43.612;1.572;2022-11-21T02:00:14;99046.78;;;18.98;50.41
67738;BME280;54534;43.612;1.572;2022-11-21T02:02:49;99030.94;;;18.97;49.59
67738;BME280;54534;43.612;1.572;2022-11-21T02:05:19;99029.94;;;18.98;49.78
67738;BME280;54534;43.612;1.572;2022-11-21T02:07:47;99014.94;;;18.97;49.81
67738;BME280;54534;43.612;1.572;2022-11-21T02:10:14;99017.72;;;18.95;49.62
67738;BME280;54534;43.612;1.572;2022-11-21T02:12:46;99016.06;;;18.94;49.70
67738;BME280;54534;43.612;1.572;2022-11-21T02:15:13;99010.72;;;18.94;49.77
67738;BME280;54534;43.612;1.572;2022-11-21T02:17:38;99001.88;;;18.94;49.62
67738;BME280;54534;43.612;1.572;2022-11-21T02:20:07;99008.19;;;18.93;49.80
67738;BME280;54534;43.612;1.572;2022-11-21T02:22:50;98997.53;;;18.93;49.48
67738;BME280;54534;43.612;1.572;2022-11-21T02:25:31;98996.69;;;18.92;49.46
67738;BME280;54534;43.612;1.572;2022-11-21T02:28:00;98996.69;;;18.92;49.64
67738;BME280;54534;43.612;1.572;2022-11-21T02:30:28;98979.88;;;18.92;49.68
67738;BME280;54534;43.612;1.572;2022-11-21T02:32:56;98965.84;;;18.89;49.70
67738;BME280;54534;43.612;1.572;2022-11-21T02:35:22;98965.00;;;18.89;49.38
67738;BME280;54534;43.612;1.572;2022-11-21T02:37:53;98954.34;;;18.89;49.55
67738;BME280;54534;43.612;1.572;2022-11-21T02:40:23;98946.44;;;18.87;49.53
67738;BME280;54534;43.612;1.572;2022-11-21T02:42:59;98952.63;;;18.88;49.76
67738;BME280;54534;43.612;1.572;2022-11-21T02:45:38;98949.97;;;18.88;49.67
67738;BME280;54534;43.612;1.572;2022-11-21T02:48:04;98929.66;;;18.87;49.72
67738;BME280;54534;43.612;1.572;2022-11-21T02:50:40;98928.81;;;18.86;49.48
67738;BME280;54534;43.612;1.572;2022-11-21T02:53:14;98930.63;;;18.86;49.82
67738;BME280;54534;43.612;1.572;2022-11-21T02:55:40;98925.28;;;18.86;49.48
67738;BME280;54534;43.612;1.572;2022-11-21T02:58:06;98926.25;;;18.85;49.58
67738;BME280;54534;43.612;1.572;2022-11-21T03:00:33;98913.06;;;18.83;49.55
67738;BME280;54534;43.612;1.572;2022-11-21T03:02:59;98913.94;;;18.84;49.45
67738;BME280;54534;43.612;1.572;2022-11-21T03:05:24;98902.44;;;18.83;49.79
67738;BME280;54534;43.612;1.572;2022-11-21T03:07:50;98887.41;;;18.82;49.65
67738;BME280;54534;43.612;1.572;2022-11-21T03:10:15;98886.59;;;18.82;49.75
67738;BME280;54534;43.612;1.572;2022-11-21T03:12:42;98878.59;;;18.82;49.67
67738;BME280;54534;43.612;1.572;2022-11-21T03:15:10;98862.63;;;18.82;49.83
67738;BME280;54534;43.612;1.572;2022-11-21T03:17:36;98848.44;;;18.81;49.95
67738;BME280;54534;43.612;1.572;2022-11-21T03:20:02;98850.25;;;18.81;49.51
67738;BME280;54534;43.612;1.572;2022-11-21T03:22:28;98838.06;;;18.78;49.79
67738;BME280;54534;43.612;1.572;2022-11-21T03:24:53;98845.91;;;18.79;49.87
67738;BME280;54534;43.612;1.572;2022-11-21T03:27:19;98839.75;;;18.79;49.85
67738;BME280;54534;43.612;1.572;2022-11-21T03:29:44;98835.25;;;18.79;49.87
67738;BME280;54534;43.612;1.572;2022-11-21T03:32:10;98826.56;;;18.77;49.67
67738;BME280;54534;43.612;1.572;2022-11-21T03:34:35;98815.91;;;18.77;49.46
67738;BME280;54534;43.612;1.572;2022-11-21T03:37:00;98811.44;;;18.78;49.71
67738;BME280;54534;43.612;1.572;2022-11-21T03:39:26;98801.75;;;18.77;49.75
67738;BME280;54534;43.612;1.572;2022-11-21T03:41:51;98796.56;;;18.75;49.50
67738;BME280;54534;43.612;1.572;2022-11-21T03:44:17;98803.59;;;18.76;49.88
67738;BME280;54534;43.612;1.572;2022-11-21T03:46:44;98772.59;;;18.75;49.40
67738;BME280;54534;43.612;1.572;2022-11-21T03:49:11;98769.06;;;18.75;49.84
67738;BME280;54534;43.612;1.572;2022-11-21T03:51:37;98756.72;;;18.74;49.38
67738;BME280;54534;43.612;1.572;2022-11-21T03:54:03;98747.06;;;18.73;49.72
67738;BME280;54534;43.612;1.572;2022-11-21T03:56:29;98743.41;;;18.74;49.59
67738;BME280;54534;43.612;1.572;2022-11-21T03:58:55;98737.28;;;18.73;49.84
67738;BME280;54534;43.612;1.572;2022-11-21T04:01:21;98718.63;;;18.73;49.47
67738;BME280;54534;43.612;1.572;2022-11-21T04:03:46;98705.44;;;18.72;49.62
67738;BME280;54534;43.612;1.572;2022-11-21T04:06:14;98708.09;;;18.72;49.49
67738;BME280;54534;43.612;1.572;2022-11-21T04:08:40;98712.56;;;18.71;49.24
67738;BME280;54534;43.612;1.572;2022-11-21T04:11:05;98711.75;;;18.71;49.46
67738;BME280;54534;43.612;1.572;2022-11-21T04:13:31;98717.91;;;18.71;49.34
67738;BME280;54534;43.612;1.572;2022-11-21T04:15:57;98710.91;;;18.70;49.47
67738;BME280;54534;43.612;1.572;2022-11-21T04:18:22;98711.88;;;18.69;49.55
67738;BME280;54534;43.612;1.572;2022-11-21T04:20:48;98698.56;;;18.69;49.72
67738;BME280;54534;43.612;1.572;2022-11-21T04:23:13;98706.53;;;18.69;49.71
67738;BME280;54534;43.612;1.572;2022-11-21T04:25:40;98699.56;;;18.68;49.53
67738;BME280;54534;43.612;1.572;2022-11-21T04:28:05;98684.53;;;18.67;49.50
67738;BME280;54534;43.612;1.572;2022-11-21T04:30:32;98689.72;;;18.68;49.68
67738;BME280;54534;43.612;1.572;2022-11-21T04:32:58;98684.53;;;18.67;49.61
67738;BME280;54534;43.612;1.572;2022-11-21T04:35:23;98683.69;;;18.66;49.67
67738;BME280;54534;43.612;1.572;2022-11-21T04:37:50;98680.06;;;18.67;49.48
67738;BME280;54534;43.612;1.572;2022-11-21T04:40:16;98686.50;;;18.65;49.29
67738;BME280;54534;43.612;1.572;2022-11-21T04:42:45;98678.38;;;18.66;49.87
67738;BME280;54534;43.612;1.572;2022-11-21T04:45:12;98677.53;;;18.66;49.24
67738;BME280;54534;43.612;1.572;2022-11-21T04:47:38;98670.53;;;18.65;49.33
67738;BME280;54534;43.612;1.572;2022-11-21T04:50:04;98670.53;;;18.65;49.56
67738;BME280;54534;43.612;1.572;2022-11-21T04:52:30;98664.34;;;18.64;49.30
67738;BME280;54534;43.612;1.572;2022-11-21T04:54:55;98672.19;;;18.66;49.39
67738;BME280;54534;43.612;1.572;2022-11-21T04:57:21;98674.16;;;18.64;49.76
67738;BME280;54534;43.612;1.572;2022-11-21T04:59:46;98674.31;;;18.62;49.56
67738;BME280;54534;43.612;1.572;2022-11-21T05:02:11;98667.16;;;18.63;49.86
67738;BME280;54534;43.612;1.572;2022-11-21T05:04:38;98677.81;;;18.63;49.79
67738;BME280;54534;43.612;1.572;2022-11-21T05:07:03;98669.00;;;18.62;49.41
67738;BME280;54534;43.612;1.572;2022-11-21T05:09:28;98667.44;;;18.60;49.95
67738;BME280;54534;43.612;1.572;2022-11-21T05:11:54;98676.13;;;18.62;49.84
67738;BME280;54534;43.612;1.572;2022-11-21T05:14:38;98669.09;;;18.61;49.42
67738;BME280;54534;43.612;1.572;2022-11-21T05:17:03;98662.13;;;18.60;49.87
67738;BME280;54534;43.612;1.572;2022-11-21T05:19:28;98668.28;;;18.60;49.43
67738;BME280;54534;43.612;1.572;2022-11-21T05:21:54;98662.97;;;18.60;49.51
67738;BME280;54534;43.612;1.572;2022-11-21T05:24:19;98664.78;;;18.60;49.62
67738;BME280;54534;43.612;1.572;2022-11-21T05:26:45;98670.09;;;18.60;49.47
67738;BME280;54534;43.612;1.572;2022-11-21T05:29:10;98665.75;;;18.59;49.50
67738;BME280;54534;43.612;1.572;2022-11-21T05:31:37;98657.75;;;18.59;49.37
67738;BME280;54534;43.612;1.572;2022-11-21T05:34:02;98649.78;;;18.59;49.30
67738;BME280;54534;43.612;1.572;2022-11-21T05:36:28;98641.78;;;18.59;49.44
67738;BME280;54534;43.612;1.572;2022-11-21T05:38:53;98647.09;;;18.59;49.41
67738;BME280;54534;43.612;1.572;2022-11-21T05:41:19;98640.25;;;18.56;49.71
67738;BME280;54534;43.612;1.572;2022-11-21T05:43:44;98629.47;;;18.58;49.76
67738;BME280;54534;43.612;1.572;2022-11-21T05:46:14;98623.28;;;18.57;49.37
67738;BME280;54534;43.612;1.572;2022-11-21T05:48:40;98618.09;;;18.55;49.52
67738;BME280;54534;43.612;1.572;2022-11-21T05:51:06;98607.44;;;18.55;49.50
67738;BME280;54534;43.612;1.572;2022-11-21T05:53:32;98592.47;;;18.54;49.47
67738;BME280;54534;43.612;1.572;2022-11-21T05:56:06;98586.13;;;18.55;49.86
67738;BME280;54534;43.612;1.572;2022-11-21T05:58:32;98579.00;;;18.56;49.68
67738;BME280;54534;43.612;1.572;2022-11-21T06:00:58;98572.84;;;18.55;49.61
67738;BME280;54534;43.612;1.572;2022-11-21T06:03:25;98558.69;;;18.55;49.92
67738;BME280;54534;43.612;1.572;2022-11-21T06:05:51;98541.88;;;18.54;49.62
67738;BME280;54534;43.612;1.572;2022-11-21T06:08:17;98527.72;;;18.54;50.00
67738;BME280;54534;43.612;1.572;2022-11-21T06:10:43;98519.16;;;18.50;49.99
67738;BME280;54534;43.612;1.572;2022-11-21T06:13:08;98510.91;;;18.53;49.94
67738;BME280;54534;43.612;1.572;2022-11-21T06:16:10;98505.59;;;18.53;49.81
67738;BME280;54534;43.612;1.572;2022-11-21T06:18:38;98499.41;;;18.53;50.00
67738;BME280;54534;43.612;1.572;2022-11-21T06:21:13;98502.06;;;18.53;49.79
67738;BME280;54534;43.612;1.572;2022-11-21T06:23:39;98494.09;;;18.53;49.83
67738;BME280;54534;43.612;1.572;2022-11-21T06:26:06;98493.28;;;18.52;50.15
67738;BME280;54534;43.612;1.572;2022-11-21T06:28:37;98501.25;;;18.52;49.90
67738;BME280;54534;43.612;1.572;2022-11-21T06:31:04;98495.09;;;18.52;49.71
67738;BME280;54534;43.612;1.572;2022-11-21T06:33:30;98486.25;;;18.51;50.13
67738;BME280;54534;43.612;1.572;2022-11-21T06:35:55;98480.09;;;18.51;50.10
67738;BME280;54534;43.612;1.572;2022-11-21T06:38:20;98485.28;;;18.52;49.68
67738;BME280;54534;43.612;1.572;2022-11-21T06:40:46;98483.59;;;18.51;49.86
67738;BME280;54534;43.612;1.572;2022-11-21T06:43:11;98483.44;;;18.53;50.06
67738;BME280;54534;43.612;1.572;2022-11-21T06:45:37;98470.28;;;18.51;49.96
67738;BME280;54534;43.612;1.572;2022-11-21T06:48:03;98457.81;;;18.52;50.27
67738;BME280;54534;43.612;1.572;2022-11-21T06:50:30;98439.19;;;18.52;50.14
67738;BME280;54534;43.612;1.572;2022-11-21T06:52:57;98423.22;;;18.52;50.10
67738;BME280;54534;43.612;1.572;2022-11-21T06:55:23;98414.38;;;18.51;50.16
67738;BME280;54534;43.612;1.572;2022-11-21T06:57:49;98408.91;;;18.53;50.38
67738;BME280;54534;43.612;1.572;2022-11-21T07:00:15;98416.06;;;18.52;50.37
67738;BME280;54534;43.612;1.572;2022-11-21T07:02:41;98412.56;;;18.52;50.42
67738;BME280;54534;43.612;1.572;2022-11-21T07:05:06;98409.06;;;18.51;50.01
67738;BME280;54534;43.612;1.572;2022-11-21T07:07:32;98404.56;;;18.52;50.44
67738;BME280;54534;43.612;1.572;2022-11-21T07:09:57;98403.72;;;18.51;50.30
67738;BME280;54534;43.612;1.572;2022-11-21T07:12:22;98409.91;;;18.52;50.23
67738;BME280;54534;43.612;1.572;2022-11-21T07:15:07;98406.41;;;18.51;50.20
67738;BME280;54534;43.612;1.572;2022-11-21T07:17:33;98400.22;;;18.51;50.21
67738;BME280;54534;43.612;1.572;2022-11-21T07:19:58;98392.13;;;18.52;50.39
67738;BME280;54534;43.612;1.572;2022-11-21T07:22:23;98393.09;;;18.51;50.59
67738;BME280;54534;43.612;1.572;2022-11-21T07:24:49;98393.94;;;18.52;50.38
67738;BME280;54534;43.612;1.572;2022-11-21T07:27:14;98388.44;;;18.53;50.67
67738;BME280;54534;43.612;1.572;2022-11-21T07:29:39;98363.66;;;18.53;50.04
67738;BME280;54534;43.612;1.572;2022-11-21T07:32:05;98349.53;;;18.52;50.60
67738;BME280;54534;43.612;1.572;2022-11-21T07:34:30;98378.66;;;18.54;50.59
67738;BME280;54534;43.612;1.572;2022-11-21T07:36:55;98378.66;;;18.54;50.56
67738;BME280;54534;43.612;1.572;2022-11-21T07:39:21;98361.84;;;18.53;50.64
67738;BME280;54534;43.612;1.572;2022-11-21T07:41:46;98368.84;;;18.54;50.20
67738;BME280;54534;43.612;1.572;2022-11-21T07:44:11;98355.53;;;18.54;50.22
67738;BME280;54534;43.612;1.572;2022-11-21T07:46:37;98357.19;;;18.55;50.43
67738;BME280;54534;43.612;1.572;2022-11-21T07:49:02;98334.25;;;18.54;50.38
67738;BME280;54534;43.612;1.572;2022-11-21T07:51:28;98336.91;;;18.54;50.28
67738;BME280;54534;43.612;1.572;2022-11-21T07:53:53;98344.88;;;18.54;50.17
67738;BME280;54534;43.612;1.572;2022-11-21T07:56:18;98343.19;;;18.53;50.31
67738;BME280;54534;43.612;1.572;2022-11-21T07:58:45;98327.22;;;18.53;50.42
67738;BME280;54534;43.612;1.572;2022-11-21T08:01:10;98324.44;;;18.55;49.89
67738;BME280;54534;43.612;1.572;2022-11-21T08:03:36;98326.25;;;18.54;50.36
67738;BME280;54534;43.612;1.572;2022-11-21T08:06:03;98315.59;;;18.54;50.20
67738;BME280;54534;43.612;1.572;2022-11-21T08:08:29;98315.44;;;18.56;50.18
67738;BME280;54534;43.612;1.572;2022-11-21T08:10:54;98311.94;;;18.55;50.41
67738;BME280;54534;43.612;1.572;2022-11-21T08:13:20;98309.28;;;18.55;50.16
67738;BME280;54534;43.612;1.572;2022-11-21T08:15:45;98290.63;;;18.55;50.16
67738;BME280;54534;43.612;1.572;2022-11-21T08:18:13;98286.16;;;18.56;49.86
67738;BME280;54534;43.612;1.572;2022-11-21T08:20:39;98280.00;;;18.55;50.28
67738;BME280;54534;43.612;1.572;2022-11-21T08:23:05;98286.16;;;18.56;50.10
67738;BME280;54534;43.612;1.572;2022-11-21T08:25:32;98290.63;;;18.55;49.80
67738;BME280;54534;43.612;1.572;2022-11-21T08:27:58;98279.03;;;18.56;50.21
67738;BME280;54534;43.612;1.572;2022-11-21T08:30:24;98263.06;;;18.56;50.21
67738;BME280;54534;43.612;1.572;2022-11-21T08:32:49;98265.56;;;18.58;50.05
67738;BME280;54534;43.612;1.572;2022-11-21T08:35:15;98265.56;;;18.58;49.36
67738;BME280;54534;43.612;1.572;2022-11-21T08:37:41;98250.59;;;18.57;49.86
67738;BME280;54534;43.612;1.572;2022-11-21T08:40:06;98261.06;;;18.59;49.56
67738;BME280;54534;43.612;1.572;2022-11-21T08:42:32;98256.75;;;18.58;50.05
67738;BME280;54534;43.612;1.572;2022-11-21T08:44:57;98250.41;;;18.59;49.88
67738;BME280;54534;43.612;1.572;2022-11-21T08:47:22;98213.16;;;18.59;50.14
67738;BME280;54534;43.612;1.572;2022-11-21T08:49:48;98234.44;;;18.59;49.72
67738;BME280;54534;43.612;1.572;2022-11-21T08:52:14;98261.06;;;18.59;49.67
67738;BME280;54534;43.612;1.572;2022-11-21T08:54:41;98233.59;;;18.58;49.54
67738;BME280;54534;43.612;1.572;2022-11-21T08:57:08;98247.75;;;18.59;49.93
67738;BME280;54534;43.612;1.572;2022-11-21T08:59:34;98231.78;;;18.59;49.78
67738;BME280;54534;43.612;1.572;2022-11-21T09:01:59;98213.16;;;18.59;49.87
67738;BME280;54534;43.612;1.572;2022-11-21T09:04:25;98210.50;;;18.59;49.47
67738;BME280;54534;43.612;1.572;2022-11-21T09:06:50;98202.50;;;18.59;49.90
67738;BME280;54534;43.612;1.572;2022-11-21T09:09:15;98207.81;;;18.59;49.37
67738;BME280;54534;43.612;1.572;2022-11-21T09:11:41;98186.53;;;18.59;49.51
67738;BME280;54534;43.612;1.572;2022-11-21T09:14:06;98179.38;;;18.59;49.75
67738;BME280;54534;43.612;1.572;2022-11-21T09:16:50;98181.22;;;18.59;49.49
67738;BME280;54534;43.612;1.572;2022-11-21T09:19:48;98155.44;;;18.59;49.55
67738;BME280;54534;43.612;1.572;2022-11-21T09:22:13;98157.25;;;18.59;49.74
67738;BME280;54534;43.612;1.572;2022-11-21T09:24:38;98148.41;;;18.58;49.51
67738;BME280;54534;43.612;1.572;2022-11-21T09:27:04;98121.78;;;18.58;49.52
67738;BME280;54534;43.612;1.572;2022-11-21T09:29:29;98127.97;;;18.59;49.49
67738;BME280;54534;43.612;1.572;2022-11-21T09:31:54;98112.84;;;18.59;49.35
67738;BME280;54534;43.612;1.572;2022-11-21T09:34:20;98105.69;;;18.60;49.79
67738;BME280;54534;43.612;1.572;2022-11-21T09:36:45;98092.38;;;18.60;49.67
67738;BME280;54534;43.612;1.572;2022-11-21T09:39:11;98098.53;;;18.60;49.63
67738;BME280;54534;43.612;1.572;2022-11-21T09:47:06;98069.25;;;18.60;49.19
67738;BME280;54534;43.612;1.572;2022-11-21T09:49:44;98070.25;;;18.59;49.15
67738;BME280;54534;43.612;1.572;2022-11-21T09:52:12;98068.56;;;18.58;49.66
67738;BME280;54534;43.612;1.572;2022-11-21T09:54:47;98090.56;;;18.60;49.27
67738;BME280;54534;43.612;1.572;2022-11-21T09:57:17;98071.09;;;18.60;49.13
67738;BME280;54534;43.612;1.572;2022-11-21T09:59:43;98064.91;;;18.59;49.55
67738;BME280;54534;43.612;1.572;2022-11-21T10:02:15;98064.91;;;18.59;49.50
67738;BME280;54534;43.612;1.572;2022-11-21T10:04:42;98085.38;;;18.59;49.12
67738;BME280;54534;43.612;1.572;2022-11-21T10:07:24;98125.16;;;18.60;49.12
67738;BME280;54534;43.612;1.572;2022-11-21T10:10:24;98104.00;;;18.59;49.23
67738;BME280;54534;43.612;1.572;2022-11-21T10:16:03;98076.41;;;18.60;49.50
67738;BME280;54534;43.612;1.572;2022-11-21T10:26:50;98119.00;;;18.60;49.12
67738;BME280;54534;43.612;1.572;2022-11-21T10:31:46;98126.16;;;18.59;49.60
67738;BME280;54534;43.612;1.572;2022-11-21T10:34:16;98133.28;;;18.59;49.42
67738;BME280;54534;43.612;1.572;2022-11-21T10:36:47;98127.84;;;18.60;49.28
67738;BME280;54534;43.612;1.572;2022-11-21T10:39:26;98105.53;;;18.61;49.13
67738;BME280;54534;43.612;1.572;2022-11-21T10:42:17;98122.34;;;18.62;49.36
67738;BME280;54534;43.612;1.572;2022-11-21T10:44:47;98127.00;;;18.60;49.14
67738;BME280;54534;43.612;1.572;2022-11-21T10:47:32;98115.50;;;18.59;49.27
67738;BME280;54534;43.612;1.572;2022-11-21T10:52:30;98091.38;;;18.61;49.35
67738;BME280;54534;43.612;1.572;2022-11-21T10:57:26;98078.91;;;18.61;49.41
67738;BME280;54534;43.612;1.572;2022-11-21T11:00:12;98081.56;;;18.61;49.35
67738;BME280;54534;43.612;1.572;2022-11-21T11:03:05;98076.25;;;18.61;49.19
67738;BME280;54534;43.612;1.572;2022-11-21T11:05:31;98070.91;;;18.61;49.12
67738;BME280;54534;43.612;1.572;2022-11-21T11:10:39;98067.41;;;18.61;49.00
67738;BME280;54534;43.612;1.572;2022-11-21T11:13:14;98055.94;;;18.60;48.94
67738;BME280;54534;43.612;1.572;2022-11-21T11:18:36;98031.00;;;18.61;48.81
67738;BME280;54534;43.612;1.572;2022-11-21T11:21:20;98015.00;;;18.61;48.82
67738;BME280;54534;43.612;1.572;2022-11-21T11:23:47;98006.19;;;18.61;49.34
67738;BME280;54534;43.612;1.572;2022-11-21T11:26:31;97982.22;;;18.61;49.13
67738;BME280;54534;43.612;1.572;2022-11-21T11:29:13;97990.22;;;18.61;48.83
67738;BME280;54534;43.612;1.572;2022-11-21T11:32:11;97986.75;;;18.60;48.97
67738;BME280;54534;43.612;1.572;2022-11-21T11:37:40;97995.53;;;18.61;48.99
67738;BME280;54534;43.612;1.572;2022-11-21T11:48:41;97969.94;;;18.60;49.03
67738;BME280;54534;43.612;1.572;2022-11-21T11:51:25;97949.47;;;18.60;49.29
67738;BME280;54534;43.612;1.572;2022-11-21T11:53:58;97950.44;;;18.59;48.82
67738;BME280;54534;43.612;1.572;2022-11-21T11:56:27;97928.19;;;18.60;48.82
67738;BME280;54534;43.612;1.572;2022-11-21T11:59:02;97925.34;;;18.62;49.03
67738;BME280;54534;43.612;1.572;2022-11-21T12:04:45;97936.16;;;18.60;49.18
67738;BME280;54534;43.612;1.572;2022-11-21T12:07:24;97926.31;;;18.61;48.90
67738;BME280;54534;43.612;1.572;2022-11-21T12:12:49;97914.69;;;18.62;48.88
67738;BME280;54534;43.612;1.572;2022-11-21T12:23:14;97913.00;;;18.61;49.10
67738;BME280;54534;43.612;1.572;2022-11-21T12:26:19;97913.84;;;18.61;49.23
67738;BME280;54534;43.612;1.572;2022-11-21T12:31:05;97889.91;;;18.61;49.46
67738;BME280;54534;43.612;1.572;2022-11-21T12:33:37;97878.41;;;18.61;49.09
67738;BME280;54534;43.612;1.572;2022-11-21T12:41:59;97865.94;;;18.61;48.91
67738;BME280;54534;43.612;1.572;2022-11-21T12:50:31;97880.25;;;18.60;48.79
67738;BME280;54534;43.612;1.572;2022-11-21T12:53:35;97875.75;;;18.61;49.07
67738;BME280;54534;43.612;1.572;2022-11-21T12:56:48;97862.44;;;18.61;49.04
67738;BME280;54534;43.612;1.572;2022-11-21T12:59:15;97856.31;;;18.60;48.81
67738;BME280;54534;43.612;1.572;2022-11-21T13:04:53;97834.00;;;18.61;48.73
67738;BME280;54534;43.612;1.572;2022-11-21T13:07:22;97834.84;;;18.62;49.21
67738;BME280;54534;43.612;1.572;2022-11-21T13:09:51;97840.16;;;18.62;48.81
67738;BME280;54534;43.612;1.572;2022-11-21T13:15:26;97831.34;;;18.61;48.89
67738;BME280;54534;43.612;1.572;2022-11-21T13:17:57;97827.69;;;18.62;49.05
67738;BME280;54534;43.612;1.572;2022-11-21T13:20:49;97829.50;;;18.62;48.73
67738;BME280;54534;43.612;1.572;2022-11-21T13:26:00;97832.19;;;18.62;49.13
67738;BME280;54534;43.612;1.572;2022-11-21T13:28:29;97819.84;;;18.61;49.09
67738;BME280;54534;43.612;1.572;2022-11-21T13:30:56;97817.19;;;18.61;49.28
67738;BME280;54534;43.612;1.572;2022-11-21T13:47:03;97776.28;;;18.62;48.80
67738;BME280;54534;43.612;1.572;2022-11-21T13:57:24;97805.38;;;18.63;48.83
67738;BME280;54534;43.612;1.572;2022-11-21T14:08:42;97820.69;;;18.61;49.02
67738;BME280;54534;43.612;1.572;2022-11-21T14:11:35;97821.53;;;18.62;48.69
67738;BME280;54534;43.612;1.572;2022-11-21T14:14:04;97819.84;;;18.61;48.82
67738;BME280;54534;43.612;1.572;2022-11-21T14:16:40;97813.53;;;18.62;48.73
67738;BME280;54534;43.612;1.572;2022-11-21T14:19:18;97820.53;;;18.63;48.99
67738;BME280;54534;43.612;1.572;2022-11-21T14:21:45;97829.50;;;18.62;48.72
67738;BME280;54534;43.612;1.572;2022-11-21T14:24:14;97825.88;;;18.63;48.99
67738;BME280;54534;43.612;1.572;2022-11-21T14:26:45;97830.34;;;18.62;48.87
67738;BME280;54534;43.612;1.572;2022-11-21T14:29:35;97829.34;;;18.63;48.83
67738;BME280;54534;43.612;1.572;2022-11-21T14:32:01;97823.22;;;18.63;48.80
67738;BME280;54534;43.612;1.572;2022-11-21T14:34:31;97817.72;;;18.64;49.31
67738;BME280;54534;43.612;1.572;2022-11-21T14:37:01;97819.84;;;18.61;49.05
67738;BME280;54534;43.612;1.572;2022-11-21T14:39:30;97829.50;;;18.62;49.01
67738;BME280;54534;43.612;1.572;2022-11-21T14:41:58;97830.34;;;18.62;48.82
67738;BME280;54534;43.612;1.572;2022-11-21T14:44:25;97827.69;;;18.62;49.15
67738;BME280;54534;43.612;1.572;2022-11-21T14:47:02;97836.34;;;18.64;48.92
67738;BME280;54534;43.612;1.572;2022-11-21T14:49:30;97828.53;;;18.63;49.10
67738;BME280;54534;43.612;1.572;2022-11-21T14:54:45;97817.88;;;18.63;48.82
67738;BME280;54534;43.612;1.572;2022-11-21T14:57:40;97821.34;;;18.63;48.92
67738;BME280;54534;43.612;1.572;2022-11-21T15:00:07;97825.88;;;18.63;48.80
67738;BME280;54534;43.612;1.572;2022-11-21T15:02:34;97837.31;;;18.63;49.18